createdAt,value
2019-02-05T00:09:48.136Z,1004.48
2019-02-05T00:19:48.061Z,1004.47
2019-02-05T00:29:48.027Z,1004.58
2019-02-05T00:39:48.032Z,1004.66
2019-02-05T00:49:48.111Z,1004.58
2019-02-05T00:59:48.059Z,1004.64
2019-02-05T01:09:48.024Z,1004.69
2019-02-05T01:19:48.009Z,1004.72
2019-02-05T01:29:48.018Z,1004.70
2019-02-05T01:39:48.062Z,1004.79
2019-02-05T01:49:48.268Z,1004.97
2019-02-05T01:59:48.141Z,1004.94
2019-02-05T02:09:48.051Z,1005.05
2019-02-05T02:19:51.013Z,1005.06
2019-02-05T02:29:48.027Z,1004.84
2019-02-05T02:39:48.054Z,1004.95
2019-02-05T02:49:48.158Z,1005.02
2019-02-05T02:59:47.968Z,1004.84
2019-02-05T03:09:48.045Z,1005.00
2019-02-05T03:19:48.110Z,1005.10
2019-02-05T03:29:48.052Z,1005.03
2019-02-05T03:39:48.213Z,1005.00
2019-02-05T03:49:48.038Z,1005.10
2019-02-05T03:59:48.169Z,1005.34
2019-02-05T04:09:48.049Z,1005.21
2019-02-05T04:19:47.922Z,1005.18
2019-02-05T04:29:48.014Z,1004.97
2019-02-05T04:39:47.964Z,1005.14
2019-02-05T04:49:48.025Z,1005.29
2019-02-05T04:59:48.839Z,1005.38
2019-02-05T05:09:49.056Z,1005.43
2019-02-05T05:19:47.998Z,1005.46
2019-02-05T05:29:48.320Z,1005.33
2019-02-05T05:39:47.972Z,1005.39
2019-02-05T05:49:47.962Z,1005.45
2019-02-05T05:59:48.017Z,1005.49
2019-02-05T06:09:48.096Z,1005.54
2019-02-05T06:19:47.907Z,1005.58
2019-02-05T06:29:48.012Z,1005.62
2019-02-05T06:39:48.041Z,1005.78
2019-02-05T06:49:48.038Z,1005.82
2019-02-05T06:59:48.971Z,1005.77
2019-02-05T07:09:48.044Z,1005.92
2019-02-05T07:19:48.031Z,1005.95
2019-02-05T07:29:48.209Z,1006.04
2019-02-05T07:39:48.089Z,1006.09
2019-02-05T07:49:49.634Z,1006.25
2019-02-05T07:59:47.935Z,1006.36
2019-02-05T08:09:47.965Z,1006.46
2019-02-05T08:19:48.058Z,1006.57
2019-02-05T08:29:48.042Z,1006.75
2019-02-05T08:39:48.101Z,1006.84
2019-02-05T08:49:48.067Z,1006.89
2019-02-05T08:59:47.898Z,1006.96
2019-02-05T09:09:48.106Z,1007.04
2019-02-05T09:19:47.980Z,1007.04
2019-02-05T09:29:48.113Z,1007.01
2019-02-05T09:39:48.088Z,1007.01
2019-02-05T09:49:48.075Z,1007.19
2019-02-05T09:59:47.877Z,1007.34
2019-02-05T10:09:48.052Z,1007.34
2019-02-05T10:19:48.008Z,1007.53
2019-02-05T10:29:57.804Z,1007.60
2019-02-05T10:39:48.062Z,1007.59
2019-02-05T10:49:48.033Z,1007.58
2019-02-05T10:59:48.033Z,1007.56
2019-02-05T11:09:47.987Z,1007.59
2019-02-05T11:19:48.032Z,1007.60
2019-02-05T11:29:48.033Z,1007.46
2019-02-05T11:39:48.156Z,1007.46
2019-02-05T11:49:47.941Z,1007.47
2019-02-05T11:59:48.030Z,1007.41
2019-02-05T12:09:47.985Z,1007.39
2019-02-05T12:19:47.914Z,1007.46
2019-02-05T12:29:47.996Z,1007.45
2019-02-05T12:39:47.810Z,1007.35
2019-02-05T12:49:48.041Z,1007.29
2019-02-05T12:59:47.821Z,1007.26
2019-02-05T13:09:48.009Z,1007.30
2019-02-05T13:19:47.994Z,1007.18
2019-02-05T13:29:47.879Z,1007.20
2019-02-05T13:39:48.048Z,1007.20
2019-02-05T13:49:47.919Z,1007.18
2019-02-05T13:59:47.974Z,1007.22
2019-02-05T14:09:48.123Z,1007.30
2019-02-05T14:19:47.831Z,1007.28
2019-02-05T14:29:48.855Z,1007.25
2019-02-05T14:39:49.009Z,1007.16
2019-02-05T21:55:36.566Z,1005.97
2019-02-05T22:05:36.663Z,1006.03
2019-02-05T22:15:36.911Z,1005.95
2019-02-05T22:25:36.618Z,1005.87
2019-02-05T22:35:36.659Z,1005.92
2019-02-05T22:45:36.622Z,1006.08
2019-02-05T22:55:36.690Z,1006.01
2019-02-05T23:05:36.572Z,1006.01
2019-02-05T23:15:36.702Z,1006.05
2019-02-05T23:25:36.622Z,1005.99
2019-02-05T23:35:36.655Z,1005.93
2019-02-05T23:45:36.719Z,1005.77
2019-02-05T23:55:36.613Z,1005.78
